Time;durP1;ratioP1;P1;durP2;ratioP2;P2;SDS_P1;SDS_P2;PMS_P1;PMS_P2;Temp;Humidity;BMP_temperature;BMP_pressure;BME280_temperature;BME280_humidity;BME280_pressure;Samples;Min_cycle;Max_cycle;Signal;HPM_P1;HPM_P2
2022/03/26 00:01:17;;;;;;;;;;;;;;;3.31;73.82;100731.31;5099291;28;19920;-84
2022/03/26 00:03:42;;;;;;;;;;;;;;;3.36;73.18;100731.34;5102452;28;19964;-83
2022/03/26 00:06:08;;;;;;;;;;;;;;;3.36;72.51;100736.56;5102191;28;19927;-85
2022/03/26 00:08:34;;;;;;;;;;;;;;;3.34;72.30;100733.94;5102318;28;20018;-86
2022/03/26 00:10:59;;;;;;;;;;;;;;;3.37;71.93;100733.09;5100479;28;20438;-84
2022/03/26 00:13:24;;;;;;;;;;;;;;;3.38;71.55;100740.06;5101775;28;19924;-84
2022/03/26 00:15:50;;;;;;;;;;;;;;;3.39;71.28;100724.34;5100768;28;19920;-83
2022/03/26 00:18:17;;;;;;;;;;;;;;;3.41;71.02;100734.84;5100569;28;19928;-85
2022/03/26 00:20:43;;;;;;;;;;;;;;;3.40;71.15;100733.97;5100265;28;19924;-84
2022/03/26 00:23:08;;;;;;;;;;;;;;;3.44;70.90;100733.09;5101392;28;19924;-83
2022/03/26 00:25:33;;;;;;;;;;;;;;;3.41;70.46;100740.94;5099199;28;20263;-83
2022/03/26 00:27:59;;;;;;;;;;;;;;;3.43;70.42;100739.22;5098910;28;19940;-84
2022/03/26 00:30:24;;;;;;;;;;;;;;;3.42;69.97;100737.47;5099460;28;20324;-83
2022/03/26 00:32:49;;;;;;;;;;;;;;;3.45;69.94;100736.59;5101184;28;19926;-84
2022/03/26 00:35:14;;;;;;;;;;;;;;;3.44;69.64;100740.06;5103541;28;19973;-83
2022/03/26 00:37:40;;;;;;;;;;;;;;;3.44;69.57;100735.69;5101348;28;20003;-84
2022/03/26 00:40:06;;;;;;;;;;;;;;;3.48;69.51;100738.31;5098504;28;19977;-83
2022/03/26 00:42:32;;;;;;;;;;;;;;;3.51;69.60;100744.47;5100140;28;19928;-82
2022/03/26 00:44:57;;;;;;;;;;;;;;;3.49;69.58;100740.09;5101014;28;19927;-82
2022/03/26 00:47:22;;;;;;;;;;;;;;;3.53;69.64;100742.72;5095844;28;20518;-83
2022/03/26 00:49:48;;;;;;;;;;;;;;;3.53;69.57;100745.34;5099670;28;19924;-83
2022/03/26 00:52:13;;;;;;;;;;;;;;;3.71;70.78;100743.59;5100279;28;20003;-83
2022/03/26 00:54:38;;;;;;;;;;;;;;;3.87;72.57;100745.34;5102332;28;19920;-84
2022/03/26 00:57:04;;;;;;;;;;;;;;;3.97;74.58;100747.13;5100721;28;19931;-83
2022/03/26 00:59:29;;;;;;;;;;;;;;;4.01;76.25;100753.22;5098980;28;19928;-84
2022/03/26 01:01:54;;;;;;;;;;;;;;;4.04;77.65;100752.31;5096329;28;19969;-84
2022/03/26 01:04:20;;;;;;;;;;;;;;;4.05;78.86;100748.84;5099735;28;19927;-85
2022/03/26 01:06:45;;;;;;;;;;;;;;;4.04;79.94;100752.31;5101996;28;19935;-83
2022/03/26 01:09:11;;;;;;;;;;;;;;;4.03;80.93;100743.59;5102329;28;20386;-83
2022/03/26 01:11:36;;;;;;;;;;;;;;;3.98;81.91;100742.72;5099929;28;20276;-84
2022/03/26 01:14:01;;;;;;;;;;;;;;;3.95;82.96;100742.72;5101559;28;19924;-84
2022/03/26 01:16:27;;;;;;;;;;;;;;;3.90;83.69;100745.34;5101101;28;19930;-84
2022/03/26 01:18:53;;;;;;;;;;;;;;;3.79;84.65;100742.72;5100781;28;20457;-86
2022/03/26 01:21:19;;;;;;;;;;;;;;;3.66;85.66;100740.13;5099659;28;19927;-87
2022/03/26 01:23:46;;;;;;;;;;;;;;;3.61;86.74;100743.59;5096298;28;20029;-83
2022/03/26 01:26:12;;;;;;;;;;;;;;;3.56;88.07;100742.72;5101417;27;19920;-87
2022/03/26 01:28:37;;;;;;;;;;;;;;;3.49;89.54;100747.94;5100618;28;19930;-84
2022/03/26 01:31:02;;;;;;;;;;;;;;;3.48;91.34;100748.81;5096706;28;19985;-84
2022/03/26 01:33:28;;;;;;;;;;;;;;;3.56;93.29;100747.09;5097473;28;20023;-85
2022/03/26 01:35:54;;;;;;;;;;;;;;;3.73;95.87;100740.09;5099102;28;19920;-83
2022/03/26 01:38:19;;;;;;;;;;;;;;;3.92;98.91;100745.34;5099885;28;20544;-84
2022/03/26 01:40:45;;;;;;;;;;;;;;;4.06;100.00;100735.72;5094129;28;20011;-84
2022/03/26 01:43:11;;;;;;;;;;;;;;;4.19;100.00;100741.84;5097972;28;20310;-84
2022/03/26 01:45:36;;;;;;;;;;;;;;;4.23;100.00;100733.09;5098055;28;20034;-83
2022/03/26 01:48:01;;;;;;;;;;;;;;;4.33;100.00;100734.81;5100119;28;19933;-85
2022/03/26 01:50:27;;;;;;;;;;;;;;;4.38;100.00;100736.56;5098403;28;19923;-84
2022/03/26 01:52:53;;;;;;;;;;;;;;;4.42;100.00;100733.03;5099763;28;19942;-88
2022/03/26 01:55:18;;;;;;;;;;;;;;;4.48;100.00;100725.16;5097855;28;20375;-87
2022/03/26 01:57:44;;;;;;;;;;;;;;;4.53;100.00;100732.16;5100883;28;19917;-85
2022/03/26 02:00:09;;;;;;;;;;;;;;;4.56;100.00;100726.00;5100733;28;19927;-86
2022/03/26 02:02:35;;;;;;;;;;;;;;;4.61;100.00;100723.34;5096343;28;20037;-86
2022/03/26 02:05:00;;;;;;;;;;;;;;;4.64;100.00;100731.22;5102476;28;19963;-85
2022/03/26 02:07:26;;;;;;;;;;;;;;;4.68;100.00;100728.59;5100300;28;19927;-85
2022/03/26 02:09:51;;;;;;;;;;;;;;;4.75;100.00;100720.69;5102926;28;19954;-88
2022/03/26 02:12:22;;;;;;;;;;;;;;;4.73;100.00;100721.56;5100974;28;19939;-85
2022/03/26 02:14:48;;;;;;;;;;;;;;;4.78;100.00;100723.31;5099661;28;20274;-85
2022/03/26 02:17:13;;;;;;;;;;;;;;;4.79;100.00;100718.03;5102060;28;19922;-88
2022/03/26 02:19:38;;;;;;;;;;;;;;;4.83;100.00;100727.63;5101304;28;20287;-89
2022/03/26 02:22:04;;;;;;;;;;;;;;;4.87;100.00;100721.50;5101325;28;19927;-84
2022/03/26 02:24:29;;;;;;;;;;;;;;;4.88;100.00;100723.25;5100480;28;19916;-88
2022/03/26 02:26:54;;;;;;;;;;;;;;;4.90;100.00;100726.75;5100702;28;20002;-88
2022/03/26 02:29:20;;;;;;;;;;;;;;;4.97;100.00;100722.34;5100814;28;19968;-84
2022/03/26 02:31:45;;;;;;;;;;;;;;;4.97;100.00;100726.72;5100604;27;19959;-84
2022/03/26 02:34:10;;;;;;;;;;;;;;;4.98;100.00;100725.81;5101583;28;19923;-87
2022/03/26 02:36:36;;;;;;;;;;;;;;;5.00;100.00;100721.47;5101835;28;20297;-86
2022/03/26 02:39:02;;;;;;;;;;;;;;;5.02;100.00;100724.94;5101413;28;20473;-86
2022/03/26 02:41:27;;;;;;;;;;;;;;;5.04;100.00;100723.16;5101736;28;19916;-86
2022/03/26 02:43:52;;;;;;;;;;;;;;;5.05;100.00;100717.03;5097909;28;19923;-85
2022/03/26 02:46:18;;;;;;;;;;;;;;;5.10;100.00;100720.50;5097855;28;19973;-84
2022/03/26 04:27:43;;;;;;;;;;;;;;;3.35;95.63;100708.63;5573093;23;19937;-82
2022/03/26 04:30:09;;;;;;;;;;;;;;;3.27;95.36;100714.72;5004403;28;19921;-84
2022/03/26 04:32:34;;;;;;;;;;;;;;;3.18;95.48;100711.22;5004256;28;19913;-84
2022/03/26 04:34:59;;;;;;;;;;;;;;;3.18;95.50;100700.75;5004390;28;19929;-84
2022/03/26 04:37:24;;;;;;;;;;;;;;;3.07;95.45;100704.19;5004362;28;19933;-84
2022/03/26 04:39:50;;;;;;;;;;;;;;;3.18;95.42;100706.84;5002284;28;19928;-85
2022/03/26 04:42:15;;;;;;;;;;;;;;;3.04;95.25;100709.44;5002440;28;20287;-83
2022/03/26 04:44:40;;;;;;;;;;;;;;;2.97;95.29;100701.53;5004275;28;19922;-82
2022/03/26 04:47:05;;;;;;;;;;;;;;;3.09;95.18;100714.69;5003565;28;19925;-82
2022/03/26 04:49:31;;;;;;;;;;;;;;;3.10;94.72;100716.44;5004138;28;19934;-83
2022/03/26 04:51:56;;;;;;;;;;;;;;;3.02;94.45;100711.19;5003453;28;19918;-83
2022/03/26 04:54:22;;;;;;;;;;;;;;;2.97;94.20;100722.50;5002083;28;19928;-82
2022/03/26 04:56:47;;;;;;;;;;;;;;;2.99;94.10;100719.03;5002221;28;19918;-84
2022/03/26 04:59:12;;;;;;;;;;;;;;;2.88;93.96;100720.72;5003912;28;20446;-80
2022/03/26 05:01:37;;;;;;;;;;;;;;;3.00;93.81;100720.78;5003384;28;19918;-83
2022/03/26 05:04:03;;;;;;;;;;;;;;;2.90;93.41;100721.59;5003469;28;20025;-83
2022/03/26 05:06:28;;;;;;;;;;;;;;;2.96;93.14;100731.25;5002203;28;20020;-84
2022/03/26 05:08:53;;;;;;;;;;;;;;;2.92;92.84;100730.38;5002408;28;20392;-84
2022/03/26 05:11:19;;;;;;;;;;;;;;;2.80;92.71;100735.53;5002854;28;20368;-84
2022/03/26 05:13:44;;;;;;;;;;;;;;;2.81;92.51;100725.09;5001219;28;20309;-84
2022/03/26 05:16:09;;;;;;;;;;;;;;;2.71;92.52;100732.03;5003214;28;19918;-84
2022/03/26 05:18:38;;;;;;;;;;;;;;;2.72;92.23;100732.88;5002403;28;19918;-84
2022/03/26 05:21:04;;;;;;;;;;;;;;;2.73;91.77;100732.91;5001528;28;19922;-85
2022/03/26 05:23:29;;;;;;;;;;;;;;;2.60;91.78;100736.34;5003149;28;19925;-84
2022/03/26 05:25:54;;;;;;;;;;;;;;;2.74;91.61;100733.75;5002519;28;19976;-85
2022/03/26 05:28:20;;;;;;;;;;;;;;;2.80;91.75;100739.03;5000465;28;19921;-84
2022/03/26 05:30:47;;;;;;;;;;;;;;;2.68;92.26;100741.59;5003206;28;20403;-84
2022/03/26 05:33:12;;;;;;;;;;;;;;;2.69;92.98;100749.44;5002646;28;19948;-85
2022/03/26 05:35:38;;;;;;;;;;;;;;;2.71;93.09;100754.69;5002795;28;19926;-84
2022/03/26 05:38:04;;;;;;;;;;;;;;;2.67;93.36;100758.16;5002819;28;20471;-84
2022/03/26 05:40:29;;;;;;;;;;;;;;;2.66;93.15;100752.03;5002847;28;20012;-84
2022/03/26 05:42:54;;;;;;;;;;;;;;;2.60;93.01;100762.50;4999838;28;20423;-84
2022/03/26 05:45:20;;;;;;;;;;;;;;;2.58;92.87;100768.59;5002628;28;19917;-84
2022/03/26 05:47:48;;;;;;;;;;;;;;;2.63;92.83;100770.38;5003059;28;19929;-84
2022/03/26 05:50:14;;;;;;;;;;;;;;;2.54;92.44;100770.31;5002342;28;19921;-84
2022/03/26 05:52:40;;;;;;;;;;;;;;;2.57;92.32;100775.56;5002270;28;19921;-84
2022/03/26 05:55:05;;;;;;;;;;;;;;;2.50;92.14;100779.00;5002575;28;20383;-84
2022/03/26 05:57:30;;;;;;;;;;;;;;;2.48;91.92;100775.50;4999983;28;19918;-84
2022/03/26 05:59:56;;;;;;;;;;;;;;;2.46;91.69;100777.25;5002120;28;20284;-84
2022/03/26 06:02:21;;;;;;;;;;;;;;;2.38;91.42;100782.44;5002633;28;19940;-85
2022/03/26 06:04:47;;;;;;;;;;;;;;;2.49;90.72;100785.09;5003188;28;19957;-83
2022/03/26 06:07:12;;;;;;;;;;;;;;;2.39;90.31;100786.78;5002484;28;19977;-85
2022/03/26 08:40:10;;;;;;;;;;;;;;;2.18;83.29;100816.28;5695243;23;19995;-87
2022/03/26 08:42:35;;;;;;;;;;;;;;;2.15;83.31;100825.00;5041310;28;19928;-87
2022/03/26 08:45:00;;;;;;;;;;;;;;;2.17;83.17;100824.97;5043218;28;19921;-85
2022/03/26 08:47:26;;;;;;;;;;;;;;;2.20;83.08;100821.50;5042013;28;20011;-86
2022/03/26 08:49:51;;;;;;;;;;;;;;;2.16;83.00;100825.84;5042691;28;19917;-86
2022/03/26 08:52:17;;;;;;;;;;;;;;;2.16;82.76;100818.88;5043207;28;20363;-87
2022/03/26 08:54:42;;;;;;;;;;;;;;;2.17;82.65;100819.75;5039863;28;19979;-86
2022/03/26 08:57:08;;;;;;;;;;;;;;;2.21;82.73;100820.66;5041558;28;19929;-86
2022/03/26 08:59:34;;;;;;;;;;;;;;;2.16;82.67;100815.41;5043000;28;19936;-85
2022/03/26 09:01:59;;;;;;;;;;;;;;;2.11;82.34;100815.34;5041487;28;20382;-84
2022/03/26 09:04:24;;;;;;;;;;;;;;;2.16;82.25;100823.25;5042877;28;19912;-85
2022/03/26 09:06:54;;;;;;;;;;;;;;;2.16;82.09;100815.41;5043213;28;19928;-84
2022/03/26 09:09:19;;;;;;;;;;;;;;;2.21;82.03;100818.91;5040354;28;19921;-85
2022/03/26 09:11:45;;;;;;;;;;;;;;;2.16;82.25;100812.78;5042849;28;19913;-85
2022/03/26 09:14:11;;;;;;;;;;;;;;;2.19;82.08;100818.03;5043108;28;19975;-84
2022/03/26 09:16:36;;;;;;;;;;;;;;;2.22;81.80;100817.16;5041114;28;19917;-84
2022/03/26 09:19:02;;;;;;;;;;;;;;;2.22;81.57;100809.31;5042964;28;20367;-86
2022/03/26 09:21:27;;;;;;;;;;;;;;;2.23;81.57;100811.94;5042471;28;20046;-84
2022/03/26 09:23:52;;;;;;;;;;;;;;;2.24;81.47;100816.31;5042853;28;20368;-86
2022/03/26 09:26:18;;;;;;;;;;;;;;;2.26;81.17;100813.72;5041078;28;19925;-84
2022/03/26 09:28:45;;;;;;;;;;;;;;;2.30;81.17;100812.91;5042407;28;19924;-86
2022/03/26 09:31:10;;;;;;;;;;;;;;;2.27;80.87;100813.72;5040231;28;19917;-86
2022/03/26 09:33:36;;;;;;;;;;;;;;;2.33;80.69;100813.78;5042383;28;19978;-90
2022/03/26 09:36:01;;;;;;;;;;;;;;;2.33;80.33;100818.13;5042023;28;20291;-86
2022/03/26 09:38:26;;;;;;;;;;;;;;;2.33;80.16;100816.41;5042152;28;20018;-87
2022/03/26 09:40:51;;;;;;;;;;;;;;;2.41;80.37;100819.06;5040619;28;19925;-88
2022/03/26 09:43:18;;;;;;;;;;;;;;;2.40;80.05;100814.69;5042290;28;20011;-87
2022/03/26 09:45:43;;;;;;;;;;;;;;;2.45;79.91;100822.56;5042572;28;20350;-87
2022/03/26 09:48:08;;;;;;;;;;;;;;;2.40;79.50;100819.06;5042292;28;19921;-86
2022/03/26 09:50:34;;;;;;;;;;;;;;;2.45;79.42;100810.38;5041611;28;19924;-87
2022/03/26 09:52:59;;;;;;;;;;;;;;;2.44;79.19;100820.81;5041718;28;19921;-86
2022/03/26 09:55:24;;;;;;;;;;;;;;;2.44;79.09;100819.09;5040991;28;20358;-89
2022/03/26 09:57:50;;;;;;;;;;;;;;;2.43;79.01;100819.94;5041933;28;19925;-88
2022/03/26 10:00:16;;;;;;;;;;;;;;;2.43;79.00;100816.47;5041830;28;20400;-86
2022/03/26 10:02:41;;;;;;;;;;;;;;;2.43;78.87;100816.47;5040949;28;20402;-89
2022/03/26 10:05:08;;;;;;;;;;;;;;;2.45;79.13;100818.22;5041911;28;20000;-88
2022/03/26 10:07:33;;;;;;;;;;;;;;;2.48;78.90;100815.63;5040659;28;20415;-87
2022/03/26 10:10:01;;;;;;;;;;;;;;;2.47;79.10;100821.72;5038991;28;19924;-87
2022/03/26 10:12:27;;;;;;;;;;;;;;;2.52;79.23;100819.13;5041883;28;20023;-88
2022/03/26 10:15:01;;;;;;;;;;;;;;;2.57;79.13;100814.81;5039582;28;20455;-88
2022/03/26 10:17:28;;;;;;;;;;;;;;;2.59;78.88;100809.59;5041266;28;19921;-89
2022/03/26 10:19:55;;;;;;;;;;;;;;;2.52;78.69;100809.56;5042275;28;19917;-88
2022/03/26 10:22:30;;;;;;;;;;;;;;;2.52;78.70;100813.88;5040278;28;20095;-87
2022/03/26 10:24:56;;;;;;;;;;;;;;;2.54;78.92;100809.56;5039502;28;19917;-87
2022/03/26 10:27:22;;;;;;;;;;;;;;;2.54;78.72;100806.94;5040532;28;20007;-87
2022/03/26 10:29:54;;;;;;;;;;;;;;;2.58;78.47;100811.31;5040567;28;20011;-87
2022/03/26 10:35:08;;;;;;;;;;;;;;;2.56;78.32;100802.59;5040905;28;20094;-87
2022/03/26 10:37:48;;;;;;;;;;;;;;;2.56;78.21;100794.75;5056714;28;19963;-88
2022/03/26 10:40:16;;;;;;;;;;;;;;;2.58;78.09;100795.63;5040474;28;20004;-88
2022/03/26 10:42:42;;;;;;;;;;;;;;;2.59;77.76;100792.16;5040109;28;19925;-88
2022/03/26 10:45:12;;;;;;;;;;;;;;;2.58;77.92;100795.63;5040244;28;20011;-87
2022/03/26 10:47:38;;;;;;;;;;;;;;;2.64;77.98;100793.03;5040674;28;19924;-89
2022/03/26 10:50:07;;;;;;;;;;;;;;;2.62;77.88;100797.41;5040001;28;19917;-88
2022/03/26 10:52:32;;;;;;;;;;;;;;;2.65;78.12;100792.19;5040356;28;20314;-87
2022/03/26 10:54:59;;;;;;;;;;;;;;;2.69;78.29;100807.00;5039097;28;19921;-87
2022/03/26 10:57:27;;;;;;;;;;;;;;;2.76;78.18;100793.97;5039802;28;19920;-88
2022/03/26 10:59:53;;;;;;;;;;;;;;;2.73;78.03;100787.84;5041292;28;19975;-89
2022/03/26 11:02:18;;;;;;;;;;;;;;;2.77;78.10;100787.88;5039794;28;19924;-88
2022/03/26 11:04:43;;;;;;;;;;;;;;;2.79;77.98;100781.75;5039815;28;19928;-89
2022/03/26 11:07:11;;;;;;;;;;;;;;;2.77;77.37;100786.13;5041861;28;19921;-87
2022/03/26 11:09:37;;;;;;;;;;;;;;;2.80;77.33;100785.28;5038970;28;19963;-87
2022/03/26 11:12:03;;;;;;;;;;;;;;;2.78;77.30;100780.03;5040188;28;19960;-84
2022/03/26 11:14:32;;;;;;;;;;;;;;;2.77;77.19;100783.50;5039957;28;19924;-85
2022/03/26 11:17:16;;;;;;;;;;;;;;;2.79;77.07;100780.91;5041766;28;19921;-85
2022/03/26 11:19:47;;;;;;;;;;;;;;;2.79;76.88;100783.50;5044552;28;19967;-85
2022/03/26 11:22:20;;;;;;;;;;;;;;;2.80;76.87;100773.06;5044622;28;19939;-85
2022/03/26 11:25:03;;;;;;;;;;;;;;;2.84;76.93;100787.03;5043196;28;19917;-85
2022/03/26 11:27:47;;;;;;;;;;;;;;;2.89;76.96;100785.31;5044285;28;20365;-84
2022/03/26 11:30:31;;;;;;;;;;;;;;;2.87;76.60;100776.56;5043471;28;19924;-85
2022/03/26 11:33:08;;;;;;;;;;;;;;;2.89;76.51;100782.72;5044369;28;19917;-86
2022/03/26 11:35:33;;;;;;;;;;;;;;;2.96;76.54;100771.38;5043987;28;19917;-85
2022/03/26 11:38:02;;;;;;;;;;;;;;;2.96;76.38;100768.75;5044651;28;19940;-84
2022/03/26 11:40:41;;;;;;;;;;;;;;;2.94;76.23;100767.03;5042854;28;19940;-85
2022/03/26 11:43:07;;;;;;;;;;;;;;;3.00;76.35;100765.28;5044529;28;19921;-87
2022/03/26 11:51:23;;;;;;;;;;;;;;;3.03;75.55;100762.69;5043927;28;19967;-87
2022/03/26 11:53:52;;;;;;;;;;;;;;;3.04;75.31;100761.81;5044307;28;19964;-87
2022/03/26 11:56:20;;;;;;;;;;;;;;;3.05;75.21;100757.47;5042995;28;19924;-87
2022/03/26 11:58:50;;;;;;;;;;;;;;;3.03;74.99;100759.19;5044048;28;19972;-88
2022/03/26 12:01:15;;;;;;;;;;;;;;;3.09;75.18;100756.59;5043646;28;19917;-88
2022/03/26 12:03:41;;;;;;;;;;;;;;;3.08;75.15;100753.09;5044332;28;20011;-87
2022/03/26 12:08:55;;;;;;;;;;;;;;;3.16;74.96;100755.75;5044077;28;20323;-87
2022/03/26 12:11:24;;;;;;;;;;;;;;;3.14;74.61;100747.00;5042919;28;19995;-89
2022/03/26 12:13:59;;;;;;;;;;;;;;;3.11;74.57;100759.22;5043601;28;19988;-87
2022/03/26 12:16:45;;;;;;;;;;;;;;;3.14;74.62;100753.97;5042839;28;19979;-88
2022/03/26 12:19:10;;;;;;;;;;;;;;;3.07;74.40;100746.09;5042066;28;19917;-88
2022/03/26 12:21:48;;;;;;;;;;;;;;;3.13;74.63;100742.63;5043789;28;19924;-88
2022/03/26 12:24:17;;;;;;;;;;;;;;;3.13;74.52;100739.13;5042209;28;19918;-87
2022/03/26 12:26:53;;;;;;;;;;;;;;;3.20;74.71;100743.53;5043733;28;19917;-87
2022/03/26 12:29:22;;;;;;;;;;;;;;;3.19;74.52;100740.03;5043403;28;19927;-86
2022/03/26 12:35:01;;;;;;;;;;;;;;;3.22;74.33;100729.56;5041421;28;20478;-88
2022/03/26 12:37:27;;;;;;;;;;;;;;;3.23;74.16;100730.44;5042856;28;19997;-87
2022/03/26 12:39:52;;;;;;;;;;;;;;;3.30;73.99;100729.56;5042235;28;20359;-87
2022/03/26 12:42:18;;;;;;;;;;;;;;;3.30;74.06;100726.94;5043545;28;19975;-88
2022/03/26 12:44:46;;;;;;;;;;;;;;;3.32;73.96;100722.59;5041913;28;19928;-88
2022/03/26 12:47:29;;;;;;;;;;;;;;;3.34;74.13;100723.47;5042095;28;20332;-87
2022/03/26 12:49:55;;;;;;;;;;;;;;;3.39;74.47;100724.34;5042473;28;20282;-87
2022/03/26 12:52:22;;;;;;;;;;;;;;;3.64;76.47;100719.16;5041997;28;19921;-87
2022/03/26 12:54:57;;;;;;;;;;;;;;;3.73;78.95;100718.25;5041555;28;19920;-87
2022/03/26 12:57:23;;;;;;;;;;;;;;;3.77;81.15;100723.50;5042995;28;19921;-88
2022/03/26 12:59:55;;;;;;;;;;;;;;;3.86;82.83;100727.88;5041472;28;19928;-88
2022/03/26 13:02:21;;;;;;;;;;;;;;;3.81;84.02;100724.38;5043178;28;20253;-89
2022/03/26 13:04:53;;;;;;;;;;;;;;;3.76;84.95;100713.88;5041876;28;20012;-88
2022/03/26 13:07:26;;;;;;;;;;;;;;;3.73;86.20;100713.88;5041064;28;19928;-88
2022/03/26 13:09:54;;;;;;;;;;;;;;;3.61;87.42;100708.66;5041717;28;19925;-88
2022/03/26 13:12:26;;;;;;;;;;;;;;;3.48;88.81;100702.53;5042652;28;19967;-88
2022/03/26 13:14:52;;;;;;;;;;;;;;;3.48;90.26;100710.41;5042416;28;19966;-86
2022/03/26 13:17:19;;;;;;;;;;;;;;;3.50;91.39;100708.66;5043153;28;19916;-86
2022/03/26 13:19:45;;;;;;;;;;;;;;;3.57;93.38;100705.13;5042547;28;20281;-86
2022/03/26 13:22:14;;;;;;;;;;;;;;;3.80;95.96;100697.28;5042912;28;19921;-87
2022/03/26 13:24:48;;;;;;;;;;;;;;;4.01;99.41;100690.28;5040497;28;19934;-88
2022/03/26 13:27:16;;;;;;;;;;;;;;;4.17;100.00;100697.22;5041351;28;19921;-88
2022/03/26 13:29:42;;;;;;;;;;;;;;;4.31;100.00;100689.34;5042435;28;19924;-87
2022/03/26 13:32:11;;;;;;;;;;;;;;;4.41;100.00;100691.94;5042617;28;19916;-86
2022/03/26 13:34:37;;;;;;;;;;;;;;;4.45;100.00;100691.94;5042333;28;19917;-87
2022/03/26 13:37:10;;;;;;;;;;;;;;;4.77;100.00;100679.53;5042290;28;19917;-86
2022/03/26 13:39:36;;;;;;;;;;;;;;;4.72;100.00;100685.69;5040489;28;19928;-87
2022/03/26 13:42:15;;;;;;;;;;;;;;;4.67;100.00;100682.19;5041941;28;20380;-87
2022/03/26 13:44:41;;;;;;;;;;;;;;;4.70;100.00;100679.56;5041918;28;19921;-87
2022/03/26 13:47:07;;;;;;;;;;;;;;;4.80;100.00;100683.00;5042052;28;19924;-87
2022/03/26 13:49:33;;;;;;;;;;;;;;;4.81;100.00;100679.50;5041772;28;20288;-87
2022/03/26 13:51:59;;;;;;;;;;;;;;;4.85;100.00;100670.75;5041148;28;19917;-87
2022/03/26 13:54:35;;;;;;;;;;;;;;;4.87;100.00;100676.84;5040972;28;19925;-87
2022/03/26 13:57:04;;;;;;;;;;;;;;;4.88;100.00;100686.50;5039838;28;20461;-87
2022/03/26 13:59:37;;;;;;;;;;;;;;;4.91;100.00;100675.97;5040871;28;20380;-87
2022/03/26 14:02:04;;;;;;;;;;;;;;;4.97;100.00;100666.31;5041191;28;19943;-87
2022/03/26 14:04:34;;;;;;;;;;;;;;;5.03;100.00;100663.66;5042221;28;19978;-86
2022/03/26 14:06:59;;;;;;;;;;;;;;;5.00;100.00;100661.03;5041675;28;19917;-87
2022/03/26 14:09:28;;;;;;;;;;;;;;;5.04;100.00;100655.75;5039136;28;19917;-87
2022/03/26 14:11:53;;;;;;;;;;;;;;;5.03;100.00;100656.63;5041021;28;19916;-87
2022/03/26 14:14:19;;;;;;;;;;;;;;;5.08;100.00;100661.88;5041770;28;19993;-87
2022/03/26 14:16:44;;;;;;;;;;;;;;;5.14;100.00;100651.31;5042221;28;19925;-87
2022/03/26 14:19:09;;;;;;;;;;;;;;;5.13;100.00;100654.81;5041730;28;19913;-87
2022/03/26 14:21:35;;;;;;;;;;;;;;;5.19;100.00;100653.91;5041561;28;19924;-88
2022/03/26 14:24:00;;;;;;;;;;;;;;;5.20;100.00;100667.03;5040671;28;19960;-87
2022/03/26 14:26:25;;;;;;;;;;;;;;;5.20;100.00;100653.91;5040892;28;19940;-87
2022/03/26 14:28:51;;;;;;;;;;;;;;;4.42;100.00;100655.19;5041299;28;19971;-87
2022/03/26 14:31:17;;;;;;;;;;;;;;;3.87;100.00;100655.34;5041553;28;19963;-86
2022/03/26 14:33:42;;;;;;;;;;;;;;;3.70;100.00;100653.63;5040367;28;19917;-86
2022/03/26 14:36:07;;;;;;;;;;;;;;;3.61;100.00;100645.75;5041286;28;19943;-86
2022/03/26 14:38:33;;;;;;;;;;;;;;;3.55;100.00;100651.84;5040498;28;19913;-86
2022/03/26 14:40:59;;;;;;;;;;;;;;;3.39;100.00;100645.75;5039810;28;19931;-86
2022/03/26 14:43:24;;;;;;;;;;;;;;;3.38;100.00;100658.84;5042042;28;19916;-86
2022/03/26 14:45:51;;;;;;;;;;;;;;;3.40;99.12;100655.38;5041642;28;19936;-87
2022/03/26 14:48:16;;;;;;;;;;;;;;;3.42;98.03;100645.75;5041387;28;19928;-87
2022/03/26 14:50:42;;;;;;;;;;;;;;;3.22;97.43;100651.00;5043139;28;19913;-86
2022/03/26 14:53:08;;;;;;;;;;;;;;;3.22;96.79;100645.75;5045183;28;19963;-87
2022/03/26 14:55:34;;;;;;;;;;;;;;;3.20;96.20;100644.84;5043245;28;19963;-87
2022/03/26 14:57:59;;;;;;;;;;;;;;;3.23;95.44;100637.00;5044451;28;20023;-87
2022/03/26 15:00:25;;;;;;;;;;;;;;;3.16;94.71;100631.75;5044910;28;19924;-87
2022/03/26 15:02:50;;;;;;;;;;;;;;;3.02;94.64;100640.47;5043970;28;20398;-87
2022/03/26 15:05:16;;;;;;;;;;;;;;;3.08;94.50;100640.50;5044304;28;20024;-87
2022/03/26 15:07:41;;;;;;;;;;;;;;;3.05;94.05;100630.00;5045499;28;20374;-87
2022/03/26 15:10:08;;;;;;;;;;;;;;;2.96;93.67;100640.47;5043373;28;19946;-87
2022/03/26 15:12:35;;;;;;;;;;;;;;;3.04;93.36;100641.34;5060318;28;19917;-87
2022/03/26 15:15:01;;;;;;;;;;;;;;;2.89;93.24;100633.50;5045074;28;19960;-87
2022/03/26 15:17:26;;;;;;;;;;;;;;;2.95;92.73;100632.59;5044762;28;19964;-87
2022/03/26 15:19:52;;;;;;;;;;;;;;;2.90;92.37;100632.59;5044972;28;19925;-88
2022/03/26 15:22:17;;;;;;;;;;;;;;;2.93;91.94;100639.59;5045297;28;19928;-87
2022/03/26 15:24:43;;;;;;;;;;;;;;;2.89;91.47;100634.34;5043665;28;19917;-87
2022/03/26 15:27:08;;;;;;;;;;;;;;;2.80;91.03;100636.94;5044402;28;19925;-87
2022/03/26 15:29:33;;;;;;;;;;;;;;;2.81;90.51;100633.47;5043681;28;19921;-87
2022/03/26 15:31:59;;;;;;;;;;;;;;;2.71;90.40;100643.03;5045048;28;20285;-87
2022/03/26 15:34:24;;;;;;;;;;;;;;;2.75;90.30;100643.06;5044652;28;20286;-86
2022/03/26 15:36:49;;;;;;;;;;;;;;;2.70;89.99;100645.66;5043146;28;19921;-86
2022/03/26 15:39:15;;;;;;;;;;;;;;;2.75;89.75;100632.59;5042479;28;19923;-87
2022/03/26 15:41:41;;;;;;;;;;;;;;;2.69;89.35;100631.66;5044194;28;20400;-86
2022/03/26 15:44:07;;;;;;;;;;;;;;;2.61;89.29;100636.00;5044165;28;20012;-86
2022/03/26 15:46:32;;;;;;;;;;;;;;;2.69;88.98;100642.13;5044300;28;19928;-87
2022/03/26 15:48:58;;;;;;;;;;;;;;;2.69;88.41;100631.66;5043221;28;20354;-86
2022/03/26 15:51:23;;;;;;;;;;;;;;;2.73;88.33;100633.44;5044384;28;19921;-86
2022/03/26 15:53:48;;;;;;;;;;;;;;;2.53;88.13;100627.25;5041897;28;19940;-87
2022/03/26 15:56:14;;;;;;;;;;;;;;;2.60;88.10;100630.78;5042616;28;19982;-86
2022/03/26 15:58:39;;;;;;;;;;;;;;;2.56;88.03;100636.88;5044772;28;20348;-86
2022/03/26 16:01:05;;;;;;;;;;;;;;;2.64;87.87;100633.41;5044061;28;19940;-87
2022/03/26 16:03:30;;;;;;;;;;;;;;;2.49;87.50;100633.34;5043024;28;19964;-86
2022/03/26 16:05:55;;;;;;;;;;;;;;;2.56;87.15;100640.38;5044076;28;19917;-86
2022/03/26 16:08:20;;;;;;;;;;;;;;;2.56;86.96;100635.13;5044473;28;20090;-86
2022/03/26 16:10:46;;;;;;;;;;;;;;;2.59;87.04;100634.28;5042709;28;19917;-86
2022/03/26 16:13:12;;;;;;;;;;;;;;;2.49;86.81;100638.56;5043546;28;19921;-86
2022/03/26 16:15:37;;;;;;;;;;;;;;;2.53;86.55;100643.81;5044075;28;20292;-86
2022/03/26 16:18:02;;;;;;;;;;;;;;;2.48;86.40;100644.69;5043775;28;19921;-86
2022/03/26 16:20:28;;;;;;;;;;;;;;;2.52;86.06;100631.63;5043399;28;20367;-86
2022/03/26 16:22:53;;;;;;;;;;;;;;;2.45;85.69;100636.84;5044012;28;19936;-87
2022/03/26 16:25:19;;;;;;;;;;;;;;;2.40;85.90;100643.78;5042723;28;19917;-87
2022/03/26 16:27:44;;;;;;;;;;;;;;;2.33;85.83;100641.16;5042772;28;19966;-86
2022/03/26 16:30:10;;;;;;;;;;;;;;;2.49;85.82;100646.44;5042187;28;19987;-86
2022/03/26 16:32:35;;;;;;;;;;;;;;;2.44;85.66;100645.53;5041536;28;19923;-85
2022/03/26 16:35:05;;;;;;;;;;;;;;;2.39;85.27;100634.19;5034821;28;19917;-85
2022/03/26 16:37:30;;;;;;;;;;;;;;;2.34;85.40;100642.88;5022147;28;20391;-85
2022/03/26 16:39:56;;;;;;;;;;;;;;;2.33;85.37;100646.38;5020710;28;19913;-86
2022/03/26 16:42:21;;;;;;;;;;;;;;;2.40;85.13;100643.78;5023354;28;19922;-86
2022/03/26 16:44:46;;;;;;;;;;;;;;;2.39;85.12;100645.50;5038570;28;19921;-86
2022/03/26 16:47:12;;;;;;;;;;;;;;;2.29;84.78;100654.19;5023194;28;19924;-85
2022/03/26 16:49:37;;;;;;;;;;;;;;;2.34;84.53;100652.47;5022453;28;20392;-85
2022/03/26 16:52:03;;;;;;;;;;;;;;;2.37;84.53;100655.09;5023895;28;19917;-85
2022/03/26 16:54:28;;;;;;;;;;;;;;;2.36;84.22;100651.63;5021373;28;20381;-85
2022/03/26 16:56:53;;;;;;;;;;;;;;;2.30;84.33;100659.44;5022457;28;19967;-86
2022/03/26 16:59:19;;;;;;;;;;;;;;;2.27;84.29;100661.19;5023278;28;20372;-86
2022/03/26 17:01:44;;;;;;;;;;;;;;;2.34;84.20;100660.31;5023062;28;19931;-86
2022/03/26 17:04:10;;;;;;;;;;;;;;;2.22;84.16;100668.09;5023145;28;19913;-85
2022/03/26 17:06:35;;;;;;;;;;;;;;;2.24;84.10;100658.53;5023506;28;19953;-86